Time;durP1;ratioP1;P1;durP2;ratioP2;P2;SDS_P1;SDS_P2;PMS_P1;PMS_P2;Temp;Humidity;BMP_temperature;BMP_pressure;BME280_temperature;BME280_humidity;BME280_pressure;Samples;Min_cycle;Max_cycle;Signal;HPM_P1;HPM_P2
2021/12/22 00:00:26;;;;;;;10.15;3.70;;;-6.10;99.90;;;;;;5057806;28;20024;-68
2021/12/22 00:02:53;;;;;;;8.55;4.15;;;-6.50;99.90;;;;;;5048803;28;20028;-67
2021/12/22 00:05:25;;;;;;;7.13;3.50;;;-7.00;99.90;;;;;;5063900;28;20652;-66
2021/12/22 00:07:52;;;;;;;10.45;3.92;;;-7.40;99.90;;;;;;5061288;28;20039;-65
2021/12/22 00:10:19;;;;;;;;;;;-7.40;99.90;;;;;;5067862;28;20056;-68
2021/12/22 00:12:45;;;;;;;;;;;-7.60;99.90;;;;;;5057066;28;19921;-69
2021/12/22 00:15:10;;;;;;;;;;;-7.70;99.90;;;;;;5050008;28;20449;-69
2021/12/22 00:17:36;;;;;;;;;;;-7.90;99.90;;;;;;5065032;28;20249;-69
2021/12/22 00:20:03;;;;;;;;;;;-8.00;99.90;;;;;;5047007;28;19962;-69
2021/12/22 00:22:28;;;;;;;;;;;-8.10;99.90;;;;;;5061757;28;19919;-70
2021/12/22 00:24:54;;;;;;;;;;;-8.20;99.90;;;;;;5067510;28;19916;-69
2021/12/22 00:27:20;;;;;;;;;;;-8.10;99.90;;;;;;5071629;28;20356;-70
2021/12/22 00:29:48;;;;;;;;;;;-8.00;99.90;;;;;;5072526;28;19913;-67
2021/12/22 00:32:16;;;;;;;;;;;-8.00;99.90;;;;;;5072095;28;19947;-65
2021/12/22 00:34:51;;;;;;;;;;;-8.00;99.90;;;;;;5055525;28;19909;-77
2021/12/22 00:37:21;;;;;;;;;;;-7.80;99.90;;;;;;5055503;28;20256;-75
2021/12/22 00:39:50;;;;;;;;;;;-7.80;99.90;;;;;;5052199;28;19916;-70
2021/12/22 00:42:17;;;;;;;;;;;-7.90;99.90;;;;;;5072930;28;19913;-77
2021/12/22 00:44:43;;;;;;;;;;;-8.10;99.90;;;;;;5073497;28;19973;-76
2021/12/22 00:47:09;;;;;;;;;;;-8.10;99.90;;;;;;5074910;28;19920;-77
2021/12/22 00:49:35;;;;;;;;;;;-8.20;99.90;;;;;;5056280;28;19973;-76
2021/12/22 00:52:01;;;;;;;;;;;-8.20;99.90;;;;;;5074468;28;19919;-79
2021/12/22 00:54:26;;;;;;;;;;;-8.20;99.90;;;;;;5074167;28;19975;-75
2021/12/22 00:56:54;;;;;;;;;;;-8.20;99.90;;;;;;5074897;28;19920;-76
2021/12/22 00:59:20;;;;;;;;;;;-8.20;99.90;;;;;;5067188;28;20383;-78
2021/12/22 01:01:45;;;;;;;;;;;-8.20;99.90;;;;;;5069500;28;19912;-75
2021/12/22 01:04:11;;;;;;;;;;;-8.30;99.90;;;;;;5073474;28;20060;-76
2021/12/22 01:06:37;;;;;;;;;;;-8.30;99.90;;;;;;5071739;28;19912;-76
2021/12/22 01:09:03;;;;;;;;;;;-8.30;99.90;;;;;;5066647;28;20287;-75
2021/12/22 01:11:29;;;;;;;;;;;-8.40;99.90;;;;;;5053038;28;19916;-77
2021/12/22 01:13:55;;;;;;;;;;;-8.30;99.90;;;;;;5072946;28;19931;-76
2021/12/22 01:16:20;;;;;;;;;;;-8.50;99.90;;;;;;5053469;28;19909;-77
2021/12/22 01:18:46;;;;;;;;;;;-8.40;99.90;;;;;;5072202;28;19970;-76
2021/12/22 01:23:50;;;;;;;;;;;-7.80;99.90;;;;;;5070937;28;19920;-75
2021/12/22 01:26:16;;;;;;;;;;;-7.60;99.90;;;;;;5064932;28;19912;-75
2021/12/22 01:28:43;;;;;;;;;;;-7.80;99.90;;;;;;5054124;28;19916;-74
2021/12/22 01:31:14;;;;;;;;;;;-7.90;99.90;;;;;;5071513;28;19912;-73
2021/12/22 01:33:39;;;;;;;;;;;-8.00;99.90;;;;;;5071507;28;19948;-74
2021/12/22 01:36:05;;;;;;;;;;;-8.10;99.90;;;;;;5063860;28;19955;-73
2021/12/22 01:38:31;;;;;;;;;;;-8.20;99.90;;;;;;5051900;28;20442;-73
2021/12/22 01:40:56;;;;;;;;;;;-8.30;99.90;;;;;;5069625;28;19916;-73
2021/12/22 01:43:22;;;;;;;;;;;-8.30;99.90;;;;;;5054663;28;19912;-75
2021/12/22 01:51:23;;;;;;;;;;;-8.40;99.90;;;;;;5068625;28;19969;-73
2021/12/22 01:53:49;;;;;;;;;;;-8.50;99.90;;;;;;5071351;28;19955;-74
2021/12/22 01:58:43;;;;;;;;;;;-8.50;99.90;;;;;;5068466;28;19966;-74
2021/12/22 02:01:10;;;;;;;;;;;-8.10;99.90;;;;;;5050449;28;20395;-74
2021/12/22 02:03:37;;;;;;;;;;;-8.50;99.90;;;;;;5051977;28;19912;-70
2021/12/22 02:06:04;;;;;;;;;;;-8.50;99.90;;;;;;5052222;28;19920;-77
2021/12/22 02:08:30;;;;;;;;;;;-8.60;99.90;;;;;;5050404;28;19916;-72
2021/12/22 02:10:56;;;;;;;;;;;-8.20;99.90;;;;;;5071437;28;19962;-76
2021/12/22 02:13:28;;;;;;;;;;;-8.20;99.90;;;;;;5069630;28;20004;-75
2021/12/22 02:15:54;;;;;;;;;;;-7.80;99.90;;;;;;5050063;28;19912;-76
2021/12/22 02:18:21;;;;;;;;;;;-8.40;99.90;;;;;;5071708;28;19989;-75
2021/12/22 02:20:48;;;;;;;;;;;-8.50;99.90;;;;;;5061404;28;20368;-76
2021/12/22 02:23:14;;;;;;;;;;;-8.50;99.90;;;;;;5052170;28;19955;-76
2021/12/22 02:25:49;;;;;;;;;;;-8.60;99.90;;;;;;5069193;28;19916;-76
2021/12/22 02:28:20;;;;;;;;;;;-8.60;99.90;;;;;;5071514;28;19912;-75
2021/12/22 02:30:46;;;;;;;;;;;-8.60;99.90;;;;;;5037168;28;19978;-76
2021/12/22 02:33:23;;;;;;;;;;;-6.40;99.90;;;;;;5052291;28;20355;-76
2021/12/22 02:36:23;;;;;;;;;;;-8.70;99.90;;;;;;5069536;28;20257;-76
2021/12/22 02:38:41;;;;;;;;;;;-8.70;99.90;;;;;;5069252;28;20252;-73
2021/12/22 02:41:08;;;;;;;;;;;-8.60;99.90;;;;;;5054205;28;19947;-76
2021/12/22 02:43:35;;;;;;;;;;;-8.60;99.90;;;;;;5054267;28;19913;-75
2021/12/22 02:46:00;;;;;;;;;;;-8.60;99.90;;;;;;5069462;28;20310;-77
2021/12/22 02:48:32;;;;;;;;;;;-8.60;99.90;;;;;;5064739;28;19999;-75
2021/12/22 02:51:00;;;;;;;;;;;-8.60;99.90;;;;;;5068346;28;19908;-76
2021/12/22 02:53:32;;;;;;;;;;;-8.60;99.90;;;;;;5072521;28;19912;-76
2021/12/22 02:56:04;;;;;;;;;;;-8.60;99.90;;;;;;5070551;28;19908;-76
2021/12/22 03:06:11;;;;;;;;;;;-8.70;99.90;;;;;;5071275;28;19987;-69
2021/12/22 03:08:37;;;;;;;;;;;-8.70;99.90;;;;;;5070573;28;19973;-69
2021/12/22 03:11:03;;;;;;;;;;;-8.70;99.90;;;;;;5065589;28;19912;-71
2021/12/22 03:13:31;;;;;;;;;;;-8.70;99.90;;;;;;5071008;28;20359;-69
2021/12/22 03:15:56;;;;;;;;;;;-8.80;99.90;;;;;;5050558;28;19909;-71
2021/12/22 03:18:22;;;;;;;;;;;-8.80;99.90;;;;;;5067666;28;20275;-71
2021/12/22 03:20:55;;;;;;;;;;;-8.80;99.90;;;;;;5066099;28;19908;-70
2021/12/22 03:23:21;;;;;;;;;;;-8.90;99.90;;;;;;5070521;28;20271;-71
2021/12/22 03:25:47;;;;;;;;;;;-8.90;99.90;;;;;;5069720;28;19916;-70
2021/12/22 03:28:12;;;;;;;;;;;-8.90;99.90;;;;;;5050546;28;20374;-69
2021/12/22 03:30:38;;;;;;;;;;;-9.00;99.90;;;;;;5067802;28;19915;-70
2021/12/22 03:33:04;;;;;;;;;;;-9.00;99.90;;;;;;5069936;28;20258;-69
2021/12/22 03:35:30;;;;;;;;;;;-8.30;99.90;;;;;;5055252;28;19909;-69
2021/12/22 03:37:57;;;;;;;;;;;-9.00;99.90;;;;;;5065227;28;20289;-69
2021/12/22 03:40:23;;;;;;;;;;;-9.10;99.90;;;;;;5068363;28;19958;-68
2021/12/22 03:42:49;;;;;;;;;;;-9.20;99.90;;;;;;5070213;28;19916;-69
2021/12/22 03:45:15;;;;;;;;;;;-9.20;99.90;;;;;;5050160;28;19982;-69
2021/12/22 03:47:40;;;;;;;;;;;-9.10;99.90;;;;;;5069912;28;19978;-70
2021/12/22 03:50:07;;;;;;;;;;;-9.20;99.90;;;;;;5068014;28;20340;-73
2021/12/22 03:52:33;;;;;;;;;;;-9.20;99.90;;;;;;5069742;28;19918;-70
2021/12/22 03:54:59;;;;;;;;;;;-9.30;99.90;;;;;;5061451;28;20023;-71
2021/12/22 03:57:25;;;;;;;;;;;-9.30;99.90;;;;;;5071980;28;20307;-70
2021/12/22 03:59:51;;;;;;;;;;;-9.30;99.90;;;;;;5052132;28;19908;-69
2021/12/22 04:02:19;;;;;;;;;;;-9.30;99.90;;;;;;5055146;28;20007;-70
2021/12/22 04:04:47;;;;;;;;;;;-9.20;99.90;;;;;;5073423;28;20375;-69
2021/12/22 04:07:13;;;;;;;;;;;-9.20;99.90;;;;;;5074141;28;19912;-69
2021/12/22 04:09:39;;;;;;;;;;;-9.20;99.90;;;;;;5062767;28;19909;-69
2021/12/22 04:12:05;;;;;;;;;;;-9.10;99.90;;;;;;5062647;28;19958;-69
2021/12/22 04:14:30;;;;;;;;;;;-9.10;99.90;;;;;;5071226;28;19958;-70
2021/12/22 04:16:56;;;;;;;;;;;-9.10;99.90;;;;;;5071905;28;19913;-71
2021/12/22 04:19:21;;;;;;;;;;;-9.00;99.90;;;;;;5055370;28;19908;-69
2021/12/22 04:21:49;;;;;;;;;;;-9.00;99.90;;;;;;5056394;28;19912;-70
2021/12/22 04:24:14;;;;;;;;;;;-8.90;99.90;;;;;;5038467;28;19908;-78
2021/12/22 04:26:40;;;;;;;;;;;-9.00;99.90;;;;;;5067181;28;19923;-72
2021/12/22 04:29:06;;;;;;;;;;;-9.00;99.90;;;;;;5072996;28;19916;-74
2021/12/22 04:31:31;;;;;;;;;;;-9.00;99.90;;;;;;5069483;28;19912;-75
2021/12/22 04:33:57;;;;;;;;;;;-9.00;99.90;;;;;;5055717;28;19954;-76
2021/12/22 04:36:23;;;;;;;;;;;-9.00;99.90;;;;;;5053439;28;19909;-75
2021/12/22 04:38:48;;;;;;;;;;;-9.00;99.90;;;;;;5073053;28;19913;-75
2021/12/22 04:41:14;;;;;;;;;;;-9.00;99.90;;;;;;5074519;28;19961;-77
2021/12/22 04:43:39;;;;;;;;;;;-9.00;99.90;;;;;;5070638;28;19924;-74
2021/12/22 04:46:05;;;;;;;;;;;-9.10;99.90;;;;;;5072054;28;19916;-77
2021/12/22 04:48:32;;;;;;;;;;;-9.10;99.90;;;;;;5075304;28;20363;-76
2021/12/22 04:50:57;;;;;;;;;;;-9.10;99.90;;;;;;5071201;28;19912;-77
2021/12/22 04:53:28;;;;;;;;;;;-9.00;99.90;;;;;;5071859;28;19958;-77
2021/12/22 04:55:54;;;;;;;;;;;-9.00;99.90;;;;;;5067256;28;19978;-76
2021/12/22 04:58:19;;;;;;;;;;;-9.00;99.90;;;;;;5074759;28;20306;-74
2021/12/22 05:00:45;;;;;;;;;;;-9.00;99.90;;;;;;5054871;28;20010;-76
2021/12/22 05:03:11;;;;;;;;;;;-7.00;99.90;;;;;;5074802;28;19913;-73
2021/12/22 05:05:36;;;;;;;;;;;-9.10;99.90;;;;;;5068048;28;19935;-75
2021/12/22 05:08:02;;;;;;;;;;;-9.20;99.90;;;;;;5073565;28;19917;-76
2021/12/22 05:10:28;;;;;;;;;;;-9.20;99.90;;;;;;5072540;28;19927;-75
2021/12/22 05:12:54;;;;;;;;;;;-9.20;99.90;;;;;;5072218;28;20391;-76
2021/12/22 05:15:21;;;;;;;;;;;-9.20;99.90;;;;;;5071100;28;19952;-75
2021/12/22 05:20:15;;;;;;;;;;;-9.10;99.90;;;;;;5062032;28;20060;-74
2021/12/22 05:22:40;;;;;;;;;;;-9.10;99.90;;;;;;5072268;28;19923;-74
2021/12/22 05:25:07;;;;;;;;;;;-9.10;99.90;;;;;;5067410;28;19912;-72
2021/12/22 05:27:33;;;;;;;;;;;-9.20;99.90;;;;;;5072449;28;19912;-73
2021/12/22 05:29:58;;;;;;;;;;;-9.30;99.90;;;;;;5071436;28;19915;-74
2021/12/22 05:32:30;;;;;;;;;;;-9.30;99.90;;;;;;5073588;28;19913;-71
2021/12/22 05:34:56;;;;;;;;;;;-9.20;99.90;;;;;;5070991;28;19953;-70
2021/12/22 05:37:21;;;;;;;;;;;-9.10;99.90;;;;;;5072654;28;19912;-73
2021/12/22 05:39:47;;;;;;;;;;;-9.10;99.90;;;;;;5052826;28;19916;-75
2021/12/22 05:42:12;;;;;;;;;;;-9.10;99.90;;;;;;5058682;28;19955;-75
2021/12/22 05:44:38;;;;;;;;;;;-9.20;99.90;;;;;;5065271;28;19916;-75
2021/12/22 05:47:04;;;;;;;;;;;-9.30;99.90;;;;;;5071528;28;19944;-77
2021/12/22 05:49:29;;;;;;;;;;;-9.30;99.90;;;;;;5073197;28;19904;-78
2021/12/22 05:51:55;;;;;;;;;;;-9.20;99.90;;;;;;5072782;28;19916;-77
2021/12/22 05:54:20;;;;;;;;;;;-9.20;99.90;;;;;;5053352;28;19976;-77
2021/12/22 05:56:46;;;;;;;;;;;-9.20;99.90;;;;;;5054689;28;19919;-77
2021/12/22 05:59:11;;;;;;;;;;;-9.20;99.90;;;;;;5063567;28;19908;-81
2021/12/22 06:01:37;;;;;;;;;;;-10.00;99.90;;;;;;5073936;28;20336;-80
2021/12/22 06:04:03;;;;;;;;;;;-8.40;99.90;;;;;;5054827;28;19909;-80
2021/12/22 06:06:29;;;;;;;;;;;-9.20;99.90;;;;;;5053655;28;19927;-80
2021/12/22 06:08:55;;;;;;;;;;;-9.20;99.90;;;;;;5071666;28;19908;-79
2021/12/22 06:11:20;;;;;;;;;;;-9.20;99.90;;;;;;5072877;28;19915;-79
2021/12/22 06:13:46;;;;;;;;;;;-9.20;99.90;;;;;;5071979;28;20383;-77
2021/12/22 06:16:11;;;;;;;;;;;-9.10;99.90;;;;;;5060612;28;20272;-72
2021/12/22 06:18:42;;;;;;;;;;;-9.10;99.90;;;;;;5067709;28;19916;-74
2021/12/22 06:21:08;;;;;;;;;;;-9.10;99.90;;;;;;5050941;28;20400;-73
2021/12/22 06:23:34;;;;;;;;;;;-9.10;99.90;;;;;;5070496;28;20042;-71
2021/12/22 06:25:59;;;;;;;;;;;-9.00;99.90;;;;;;5063599;28;19920;-71
2021/12/22 06:28:25;;;;;;;;;;;-8.90;99.90;;;;;;5053839;28;20242;-70
2021/12/22 06:30:50;;;;;;;;;;;-8.90;99.90;;;;;;5064214;28;19961;-70
2021/12/22 06:33:16;;;;;;;;;;;-8.90;99.90;;;;;;5078922;28;20064;-68
2021/12/22 06:35:41;;;;;;;;;;;-9.00;99.90;;;;;;5071082;28;20229;-70
2021/12/22 06:38:07;;;;;;;;;;;-9.00;99.90;;;;;;5069376;28;19916;-69
2021/12/22 06:40:33;;;;;;;;;;;-9.00;99.90;;;;;;5070407;28;19969;-67
2021/12/22 06:42:58;;;;;;;;;;;-8.90;99.90;;;;;;5071787;28;19917;-68
2021/12/22 06:45:24;;;;;;;;;;;-9.00;99.90;;;;;;5066781;28;19919;-69
2021/12/22 06:47:52;;;;;;;;;;;-9.10;99.90;;;;;;5070061;28;19923;-68
2021/12/22 06:50:18;;;;;;;;;;;-8.30;99.90;;;;;;5082160;28;19947;-68
2021/12/22 06:52:43;;;;;;;;;;;-9.10;99.90;;;;;;5055612;28;19966;-68
2021/12/22 06:55:09;;;;;;;;;;;-9.00;99.90;;;;;;5069372;28;19970;-68
2021/12/22 06:57:35;;;;;;;;;;;-8.90;99.90;;;;;;5045390;28;20269;-68
2021/12/22 07:00:03;;;;;;;;;;;-7.10;99.90;;;;;;5075469;28;19977;-68
2021/12/22 07:02:31;;;;;;;;;;;-8.40;99.90;;;;;;5085253;28;19916;-69
2021/12/22 07:04:57;;;;;;;;;;;-8.30;99.90;;;;;;5080521;28;20362;-68
2021/12/22 07:07:23;;;;;;;;;;;-8.20;99.90;;;;;;5066746;28;19966;-69
2021/12/22 07:09:49;;;;;;;;;;;-8.00;99.90;;;;;;5074695;28;20399;-69
2021/12/22 07:12:14;;;;;;;;;;;-7.60;99.90;;;;;;5052492;28;19999;-69
2021/12/22 07:14:40;;;;;;;;;;;-7.20;99.90;;;;;;5034129;28;20000;-69
2021/12/22 07:17:05;;;;;;;;;;;-7.70;99.90;;;;;;5071783;28;19917;-68
2021/12/22 07:19:31;;;;;;;;;;;-7.90;99.90;;;;;;5077565;28;19912;-69
2021/12/22 07:21:56;;;;;;;;;;;-8.10;99.90;;;;;;5086929;28;19919;-68
2021/12/22 07:24:22;;;;;;;;;;;-8.10;99.90;;;;;;5073309;28;19922;-69
2021/12/22 07:26:48;;;;;;;;;;;-8.10;99.90;;;;;;5080313;28;19916;-68
2021/12/22 07:29:13;;;;;;;;;;;-8.20;99.90;;;;;;5077103;28;19916;-68
2021/12/22 07:31:39;;;;;;;;;;;-7.90;99.90;;;;;;5084945;28;20424;-69
2021/12/22 07:34:23;;;;;;;;;;;-7.10;99.90;;;;;;5085970;28;20439;-69
2021/12/22 07:37:03;;;;;;;;;;;-6.80;99.90;;;;;;5074178;28;19980;-69
2021/12/22 07:39:28;;;;;;;;;;;-6.40;99.90;;;;;;5076515;28;19981;-68
2021/12/22 07:41:54;;;;;;;;;;;-6.00;99.90;;;;;;5070317;28;20007;-69
2021/12/22 07:44:20;;;;;;;;;;;-6.20;99.90;;;;;;5062543;28;20383;-67
2021/12/22 07:46:46;;;;;;;;;;;-6.50;99.90;;;;;;5076524;28;19919;-67
2021/12/22 07:49:11;;;;;;;;;;;-6.70;99.90;;;;;;5066987;28;19929;-66
2021/12/22 07:51:37;;;;;;;;;;;-6.00;99.90;;;;;;5052755;28;19917;-68
2021/12/22 07:54:03;;;;;;;;;;;-5.10;99.90;;;;;;5060022;28;19970;-68
2021/12/22 07:56:29;;;;;;;;;;;-4.90;99.90;;;;;;5090299;28;19944;-66
2021/12/22 07:58:54;;;;;;;;;;;-5.30;99.90;;;;;;5078342;28;19911;-68
2021/12/22 08:01:20;;;;;;;;;;;-5.80;99.90;;;;;;5051371;28;19908;-68
2021/12/22 08:03:46;;;;;;;;;;;-5.40;99.90;;;;;;5065183;28;19912;-68
2021/12/22 08:06:12;;;;;;;;;;;-5.10;99.90;;;;;;5068355;28;20458;-68
2021/12/22 08:08:37;;;;;;;;;;;-4.40;99.90;;;;;;5068514;28;20013;-67
2021/12/22 08:11:03;;;;;;;;;;;-4.20;99.90;;;;;;5056896;28;19912;-69
2021/12/22 08:13:29;;;;;;;;;;;-4.00;99.90;;;;;;5056724;28;19921;-69
2021/12/22 08:15:54;;;;;;;;;;;-3.50;99.90;;;;;;5038495;28;19912;-69
2021/12/22 08:18:20;;;;;;;;;;;-3.80;99.90;;;;;;5068224;28;20276;-69
2021/12/22 08:20:46;;;;;;;;;;;-4.00;99.90;;;;;;5066221;28;19912;-70
2021/12/22 08:23:12;;;;;;;;;;;-4.20;99.90;;;;;;5065689;28;19912;-70
2021/12/22 08:25:38;;;;;;;;;;;-4.20;99.90;;;;;;5047872;28;20249;-69
2021/12/22 08:28:05;;;;;;;;;;;-4.40;99.90;;;;;;5051063;28;19939;-68
2021/12/22 08:30:30;;;;;;;;;;;-4.50;99.90;;;;;;5064580;28;19923;-68
2021/12/22 08:32:58;;;;;;;;;;;-4.60;99.90;;;;;;5068503;28;19913;-68
2021/12/22 08:35:26;;;;;;;;;;;-4.80;99.90;;;;;;5054131;28;19919;-69
2021/12/22 08:40:36;;;;;;;;;;;-4.90;99.90;;;;;;5067211;28;20566;-68
2021/12/22 08:43:01;;;;;;;;;;;-4.50;99.90;;;;;;5071931;28;19912;-70
2021/12/22 08:45:27;;;;;;;;;;;-4.40;99.90;;;;;;5069901;28;19943;-69
2021/12/22 08:47:53;;;;;;;;;;;-4.30;99.90;;;;;;5051405;28;19920;-69
2021/12/22 08:50:19;;;;;;;;;;;-4.20;99.90;;;;;;5046411;28;19970;-67
2021/12/22 08:52:45;;;;;;;;;;;-4.10;99.90;;;;;;5071078;28;19979;-70
2021/12/22 08:55:11;;;;;;;;;;;-3.90;99.90;;;;;;5066474;28;19986;-69
2021/12/22 08:57:37;;;;;;;;;;;-3.90;99.90;;;;;;5063806;28;20365;-69
2021/12/22 09:00:06;;;;;;;;;;;-4.30;99.90;;;;;;5067769;28;20011;-68
2021/12/22 09:02:32;;;;;;;;;;;-4.70;99.90;;;;;;5048670;28;19952;-68
2021/12/22 09:04:57;;;;;;;;;;;-5.20;99.90;;;;;;5046121;28;20770;-68
2021/12/22 09:07:23;;;;;;;;;;;-5.20;99.90;;;;;;5070982;28;19912;-68
2021/12/22 09:09:48;;;;;;;;;;;-5.40;99.90;;;;;;5068897;28;19908;-69
2021/12/22 09:12:14;;;;;;;;;;;-5.60;99.90;;;;;;5050599;28;19966;-70
2021/12/22 09:14:40;;;;;;;;;;;-5.40;99.90;;;;;;5054244;28;20349;-69
2021/12/22 09:17:06;;;;;;;;;;;-5.30;99.90;;;;;;5071260;28;19916;-70
2021/12/22 09:19:31;;;;;;;;;;;-5.20;99.90;;;;;;5068237;28;20262;-68
2021/12/22 09:21:57;;;;;;;;;;;-5.20;99.90;;;;;;5064837;28;20525;-67
2021/12/22 09:24:22;;;;;;;;;;;-5.40;99.90;;;;;;5070717;28;19959;-68
2021/12/22 09:26:48;;;;;;;;;;;-5.90;99.90;;;;;;5067688;28;19962;-68
2021/12/22 09:29:14;;;;;;;;;;;-6.10;99.90;;;;;;5050085;28;19999;-69
2021/12/22 09:31:40;;;;;;;;;;;-6.10;99.90;;;;;;5070666;28;19956;-70
2021/12/22 09:34:06;;;;;;;;;;;-6.20;99.90;;;;;;5069021;28;20385;-68
2021/12/22 09:36:31;;;;;;;;;;;-6.30;99.90;;;;;;5057216;28;19951;-67
2021/12/22 09:38:57;;;;;;;;;;;-6.40;99.90;;;;;;5063034;28;19920;-68
2021/12/22 09:41:23;;;;;;;;;;;-6.40;99.90;;;;;;5067299;28;19912;-69
2021/12/22 09:43:51;;;;;;;;;;;-6.40;99.90;;;;;;5067754;28;19912;-70
2021/12/22 09:46:20;;;;;;;;;;;-6.10;99.90;;;;;;5061563;28;19916;-69
2021/12/22 09:53:39;;;;;;;;;;;-6.20;99.90;;;;;;5065035;28;20654;-67
2021/12/22 09:56:06;;;;;;;;;;;-5.70;99.90;;;;;;5068225;28;20371;-68
2021/12/22 09:58:32;;;;;;;;;;;-5.60;99.90;;;;;;5062950;28;20017;-67
2021/12/22 10:00:58;;;;;;;;;;;-5.40;99.90;;;;;;5060369;28;20755;-69
2021/12/22 10:03:24;;;;;;;;;;;-5.20;99.90;;;;;;5062557;28;20005;-67
2021/12/22 10:05:50;;;;;;;;;;;-5.20;99.90;;;;;;5045376;28;20073;-67
2021/12/22 10:08:20;;;;;;;;;;;-5.40;99.90;;;;;;5060190;28;20724;-68
2021/12/22 10:11:08;;;;;;;;;;;-5.70;99.90;;;;;;5064816;28;19919;-69
2021/12/22 10:13:34;;;;;;;;;;;-5.90;99.90;;;;;;5066191;28;19939;-70
2021/12/22 10:16:08;;;;;;;;;;;-5.90;99.90;;;;;;5058258;28;20638;-70
2021/12/22 10:18:34;;;;;;;;;;;-5.90;99.90;;;;;;5046180;28;20454;-69
2021/12/22 10:21:16;;;;;;;;;;;-6.00;99.90;;;;;;5067376;28;19908;-67
2021/12/22 10:23:46;;;;;;;;;;;-6.20;99.90;;;;;;5064179;28;20417;-68
2021/12/22 10:26:16;;;;;;;;;;;-6.40;99.90;;;;;;5060460;28;19947;-71
2021/12/22 10:28:49;;;;;;;;;;;-6.40;99.90;;;;;;5065329;28;19916;-69
2021/12/22 10:31:15;;;;;;;;;;;-6.40;99.90;;;;;;5059456;28;19923;-70
2021/12/22 10:33:42;;;;;;;;;;;-6.50;99.90;;;;;;5064295;28;20899;-69
2021/12/22 10:36:12;;;;;;;;;;;-6.50;99.90;;;;;;5054880;28;19912;-69
2021/12/22 10:38:38;;;;;;;;;;;-6.60;99.90;;;;;;5055074;28;19982;-69
2021/12/22 10:41:07;;;;;;;;;;;-6.70;99.90;;;;;;5056661;28;19964;-69
2021/12/22 10:43:33;;;;;;;;;;;-6.50;99.90;;;;;;5060025;28;20335;-68
2021/12/22 10:46:03;;;;;;;;;;;-6.40;99.90;;;;;;5058108;28;20469;-69
2021/12/22 10:51:25;;;;;;;;;;;-6.20;99.90;;;;;;5054484;28;19923;-69
2021/12/22 10:53:52;;;;;;;;;;;-6.20;99.90;;;;;;5056488;28;19917;-71
2021/12/22 10:56:28;;;;;;;;;;;-5.90;99.90;;;;;;5059337;28;19908;-69
2021/12/22 10:59:03;;;;;;;;;;;-5.70;99.90;;;;;;5059854;28;19962;-70
2021/12/22 11:01:29;;;;;;;;;;;-5.60;99.90;;;;;;5053715;28;19977;-68
2021/12/22 11:04:02;;;;;;;;;;;-5.60;99.90;;;;;;5060305;28;19940;-69
2021/12/22 11:06:30;;;;;;;;;;;-5.20;99.90;;;;;;5063383;28;19920;-68
2021/12/22 11:08:55;;;;;;;;;;;-5.80;99.90;;;;;;5064159;28;19912;-70
2021/12/22 11:11:21;;;;;;;;;;;-6.00;99.90;;;;;;5050846;28;19920;-69
2021/12/22 11:14:00;;;;;;;;;;;-6.20;99.90;;;;;;5064548;28;19916;-69
2021/12/22 11:16:26;;;;;;;;;;;-6.10;99.90;;;;;;5058258;28;19913;-67
2021/12/22 11:18:52;;;;;;;;;;;-6.20;99.90;;;;;;5057612;28;19908;-68
2021/12/22 11:21:23;;;;;;;;;;;-6.20;99.90;;;;;;5040942;28;19916;-69
2021/12/22 11:23:49;;;;;;;;;;;-6.10;99.90;;;;;;5051475;28;19921;-68
2021/12/22 11:26:14;;;;;;;;;;;-5.90;99.90;;;;;;5060227;28;19928;-68
2021/12/22 11:28:40;;;;;;;;;;;-5.70;99.90;;;;;;5053234;28;20004;-69
2021/12/22 11:31:07;;;;;;;;;;;-5.30;99.90;;;;;;5058513;28;19913;-67
2021/12/22 11:33:32;;;;;;;;;;;-5.40;99.90;;;;;;5055363;28;20062;-67
2021/12/22 11:35:59;;;;;;;;;;;-5.70;99.90;;;;;;5059610;28;20557;-68
2021/12/22 11:38:26;;;;;;;;;;;-6.10;99.90;;;;;;5057027;28;19920;-68
2021/12/22 11:41:06;;;;;;;;;;;-6.40;99.90;;;;;;5058276;28;20038;-69
2021/12/22 11:43:31;;;;;;;;;;;-6.30;99.90;;;;;;5066361;28;19917;-68
2021/12/22 11:45:57;;;;;;;;;;;-6.30;99.90;;;;;;5056985;28;20276;-68
2021/12/22 11:48:23;;;;;;;;;;;-6.50;99.90;;;;;;5060067;28;20364;-69
2021/12/22 11:50:48;;;;;;;;;;;-6.60;99.90;;;;;;5057533;28;19952;-68
2021/12/22 11:53:15;;;;;;;;;;;-6.70;99.90;;;;;;5054929;28;19919;-69
2021/12/22 11:55:50;;;;;;;;;;;-6.70;99.90;;;;;;5057297;28;20364;-68
2021/12/22 11:58:16;;;;;;;;;;;-6.70;99.90;;;;;;5057979;28;19958;-69
2021/12/22 12:01:08;;;;;;;;;;;-6.60;99.90;;;;;;5044564;28;20303;-67
2021/12/22 12:03:46;;;;;;;;;;;-6.50;99.90;;;;;;5056929;28;19935;-67
2021/12/22 12:06:16;;;;;;;;;;;-6.50;99.90;;;;;;5061481;28;20023;-69
2021/12/22 12:08:46;;;;;;;;;;;-6.70;99.90;;;;;;5059933;28;20000;-69
2021/12/22 12:11:14;;;;;;;;;;;-6.70;99.90;;;;;;5041580;28;20047;-67
2021/12/22 12:21:52;;;;;;;;;;;-6.70;99.90;;;;;;5057886;28;19919;-68
2021/12/22 12:24:30;;;;;;;;;;;-6.70;99.90;;;;;;5062823;28;19916;-66
2021/12/22 12:26:56;;;;;;;;;;;-6.70;99.90;;;;;;5061814;28;20010;-67
2021/12/22 12:29:40;;;;;;;;;;;-6.80;99.90;;;;;;5028161;28;20344;-68
2021/12/22 12:32:06;;;;;;;;;;;-6.70;99.90;;;;;;5044137;28;20272;-69
2021/12/22 12:34:31;;;;;;;;;;;-6.70;99.90;;;;;;5057761;28;19912;-68
2021/12/22 12:36:57;;;;;;;;;;;-6.70;99.90;;;;;;5063588;28;20227;-69
2021/12/22 12:39:41;;;;;;;;;;;-6.90;99.90;;;;;;5062369;28;19924;-68
2021/12/22 12:42:07;;;;;;;;;;;-6.90;99.90;;;;;;5064704;28;19923;-69
2021/12/22 12:44:32;;;;;;;;;;;-6.90;99.90;;;;;;5048984;28;19912;-68
2021/12/22 12:47:16;;;;;;;;;;;-6.90;99.90;;;;;;5051608;28;19913;-71
2021/12/22 12:49:43;;;;;;;;;;;-6.80;99.90;;;;;;5057901;28;19909;-69
2021/12/22 12:52:10;;;;;;;;;;;-6.80;99.90;;;;;;5042175;28;19927;-69
2021/12/22 12:54:40;;;;;;;;;;;-6.80;99.90;;;;;;5059700;28;19913;-69
2021/12/22 12:57:14;;;;;;;;;;;-6.80;99.90;;;;;;5066336;28;20624;-69
2021/12/22 12:59:40;;;;;;;;;;;-6.80;99.90;;;;;;5064640;28;19931;-68
2021/12/22 13:02:07;;;;;;;;;;;-6.80;99.90;;;;;;5062536;28;19925;-69
2021/12/22 13:04:33;;;;;;;;;;;-6.80;99.90;;;;;;5039550;28;19928;-68
2021/12/22 13:07:14;;;;;;;;;;;-6.90;99.90;;;;;;5060339;28;19912;-70
2021/12/22 13:09:55;;;;;;;;;;;-6.80;99.90;;;;;;5062221;28;19912;-69
2021/12/22 13:17:41;;;;;;;;;;;-6.50;99.90;;;;;;5060544;28;19957;-69
2021/12/22 13:20:08;;;;;;;;;;;-6.60;99.90;;;;;;5059823;28;19916;-68
2021/12/22 13:22:35;;;;;;;;;;;-6.60;99.90;;;;;;5059146;28;20464;-68
2021/12/22 13:25:10;;;;;;;;;;;-6.60;99.90;;;;;;5059172;28;20043;-67
2021/12/22 13:27:37;;;;;;;;;;;-6.70;99.90;;;;;;5054513;28;20015;-69
2021/12/22 13:30:22;;;;;;;;;;;-6.70;99.90;;;;;;5062205;28;19954;-69
2021/12/22 13:32:59;;;;;;;;;;;-6.70;99.90;;;;;;5043685;28;20210;-67
2021/12/22 13:35:27;;;;;;;;;;;-6.70;99.90;;;;;;5058373;28;19912;-67
2021/12/22 13:37:53;;;;;;;;;;;-6.70;99.90;;;;;;5065358;28;19999;-68
2021/12/22 13:40:51;;;;;;;;;;;-6.80;99.90;;;;;;5064309;28;20243;-69
2021/12/22 13:43:16;;;;;;;;;;;-6.80;99.90;;;;;;5022788;28;19994;-69
2021/12/22 13:45:42;;;;;;;;;;;-6.80;99.90;;;;;;5063610;28;19912;-70
2021/12/22 13:48:15;;;;;;;;;;;-6.80;99.90;;;;;;5065665;28;19991;-67
2021/12/22 13:50:41;;;;;;;;;;;-6.80;99.90;;;;;;5064676;28;19915;-69
2021/12/22 13:53:07;;;;;;;;;;;-6.90;99.90;;;;;;5063756;28;20014;-69
2021/12/22 13:55:32;;;;;;;;;;;-6.90;99.90;;;;;;5058454;28;19916;-70
2021/12/22 13:57:58;;;;;;;;;;;-6.90;99.90;;;;;;5064332;28;19919;-69
2021/12/22 14:00:23;;;;;;;;;;;-6.90;99.90;;;;;;5064372;28;20476;-69
2021/12/22 14:02:49;;;;;;;;;;;-6.80;99.90;;;;;;5067870;28;19928;-69
2021/12/22 14:05:16;;;;;;;;;;;-6.80;99.90;;;;;;5060764;28;20256;-69
2021/12/22 14:07:41;;;;;;;;;;;-6.80;99.90;;;;;;5070180;28;20018;-69
2021/12/22 14:10:11;;;;;;;;;;;-6.70;99.90;;;;;;5061083;28;19958;-70
2021/12/22 14:12:39;;;;;;;;;;;-6.70;99.90;;;;;;5067058;28;20011;-69
2021/12/22 14:15:06;;;;;;;;;;;-6.80;99.90;;;;;;5064410;28;19927;-69
2021/12/22 14:17:46;;;;;;;;;;;-6.80;99.90;;;;;;5066494;28;19960;-70
2021/12/22 14:20:20;;;;;;;;;;;-6.80;99.90;;;;;;5065185;28;19909;-69
2021/12/22 14:22:47;;;;;;;;;;;-6.70;99.90;;;;;;5064716;28;20112;-69
2021/12/22 14:25:15;;;;;;;;;;;-6.70;99.90;;;;;;5059151;28;19913;-69
2021/12/22 14:27:46;;;;;;;;;;;-6.30;99.90;;;;;;5063587;28;19943;-69
2021/12/22 14:30:20;;;;;;;;;;;-6.60;99.90;;;;;;5061534;28;19912;-67
2021/12/22 14:33:12;;;;;;;;;;;-6.60;99.90;;;;;;5058749;28;19923;-67
2021/12/22 14:35:39;;;;;;;;;;;-6.50;99.90;;;;;;5051358;28;20362;-68
2021/12/22 14:38:24;;;;;;;;;;;-6.60;99.90;;;;;;5044436;28;20382;-69
2021/12/22 14:40:52;;;;;;;;;;;-6.70;99.90;;;;;;5060572;28;20031;-69
2021/12/22 14:43:17;;;;;;;;;;;-6.50;99.90;;;;;;5064352;28;19916;-71
2021/12/22 14:45:43;;;;;;;;;;;-6.70;99.90;;;;;;5060975;28;19916;-68
2021/12/22 14:48:14;;;;;;;;;;;-6.60;99.90;;;;;;5064401;28;19924;-68
2021/12/22 14:51:00;;;;;;;;;;;-6.50;99.90;;;;;;5058607;28;19912;-69
2021/12/22 14:53:31;;;;;;;;;;;-6.60;99.90;;;;;;5060563;28;19928;-67
2021/12/22 14:55:57;;;;;;;;;;;-6.70;99.90;;;;;;5063273;28;20000;-68
2021/12/22 14:58:23;;;;;;;;;;;-6.60;99.90;;;;;;5059594;28;20382;-69
2021/12/22 15:00:49;;;;;;;;;;;-6.80;99.90;;;;;;5062250;28;19916;-68
2021/12/22 15:03:15;;;;;;;;;;;-6.80;99.90;;;;;;5047542;28;19923;-68